createdAt,value
2022-10-08T00:00:07.051Z,101158.72
2022-10-08T00:02:37.703Z,101151.47
2022-10-08T00:05:04.155Z,101151.47
2022-10-08T00:07:30.541Z,101155.75
2022-10-08T00:09:56.850Z,101145.69
2022-10-08T00:12:23.170Z,101156.50
2022-10-08T00:14:49.482Z,101144.22
2022-10-08T00:17:15.816Z,101151.47
2022-10-08T00:19:45.125Z,101151.31
2022-10-08T00:22:11.594Z,101149.91
2022-10-08T00:24:40.020Z,101144.78
2022-10-08T00:27:06.343Z,101149.81
2022-10-08T00:29:33.463Z,101157.06
2022-10-08T00:31:59.916Z,101151.22
2022-10-08T00:34:26.323Z,101147.56
2022-10-08T00:36:53.252Z,101159.84
2022-10-08T00:39:19.945Z,101150.38
2022-10-08T00:41:47.478Z,101152.59
2022-10-08T00:44:32.706Z,101156.88
2022-10-08T00:46:59.025Z,101143.84
2022-10-08T00:49:25.618Z,101143.19
2022-10-08T00:51:52.672Z,101141.06
2022-10-08T00:54:19.375Z,101135.19
2022-10-08T00:56:46.647Z,101137.34
2022-10-08T00:59:12.999Z,101129.44
2022-10-08T01:01:42.981Z,101123.66
2022-10-08T01:04:09.507Z,101130.84
2022-10-08T01:06:42.197Z,101128.59
2022-10-08T01:09:23.529Z,101134.38
2022-10-08T01:12:12.841Z,101129.34
2022-10-08T01:14:41.691Z,101130.66
2022-10-08T01:17:17.462Z,101124.97
2022-10-08T01:19:48.016Z,101119.22
2022-10-08T01:22:40.726Z,101113.38
2022-10-08T01:25:30.423Z,101110.56
2022-10-08T01:28:13.706Z,101116.97
2022-10-08T01:30:40.841Z,101126.38
2022-10-08T01:33:12.445Z,101115.59
2022-10-08T01:35:40.376Z,101114.88
2022-10-08T01:38:07.051Z,101108.25
2022-10-08T01:40:36.287Z,101110.38
2022-10-08T01:43:04.105Z,101104.63
2022-10-08T01:45:33.125Z,101110.47
2022-10-08T01:47:59.889Z,101114.78
2022-10-08T01:50:28.212Z,101116.25
2022-10-08T01:52:55.148Z,101100.91
2022-10-08T01:55:47.897Z,101091.63
2022-10-08T01:58:34.368Z,101091.63
2022-10-08T02:01:02.969Z,101096.66
2022-10-08T02:03:29.358Z,101089.38
2022-10-08T02:05:55.697Z,101092.16
2022-10-08T02:08:22.637Z,101082.16
2022-10-08T02:10:48.963Z,101081.38
2022-10-08T02:13:15.275Z,101067.63
2022-10-08T02:15:41.515Z,101076.28
2022-10-08T02:18:15.656Z,101077.03
2022-10-08T02:20:47.149Z,101075.63
2022-10-08T02:23:15.872Z,101077.03
2022-10-08T02:25:55.178Z,101072.66
2022-10-08T02:28:32.014Z,101071.25
2022-10-08T02:31:09.008Z,101071.16
2022-10-08T02:33:39.811Z,101070.44
2022-10-08T02:36:06.259Z,101073.97
2022-10-08T02:38:33.563Z,101077.03
2022-10-08T02:41:00.234Z,101073.00
2022-10-08T02:43:27.836Z,101081.84
2022-10-08T02:45:55.542Z,101085.47
2022-10-08T02:48:23.846Z,101080.44
2022-10-08T02:50:50.171Z,101073.19
2022-10-08T02:53:18.199Z,101079.16
2022-10-08T02:55:45.596Z,101078.38
2022-10-08T02:58:11.980Z,101080.63
2022-10-08T03:00:49.212Z,101087.13
2022-10-08T03:03:15.834Z,101084.91
2022-10-08T03:05:42.164Z,101078.38
2022-10-08T03:08:08.534Z,101083.50
2022-10-08T03:10:35.189Z,101083.41
2022-10-08T03:13:01.613Z,101092.16
2022-10-08T03:15:28.291Z,101087.03
2022-10-08T03:17:54.613Z,101090.00
2022-10-08T03:20:21.066Z,101090.88
2022-10-08T03:22:47.626Z,101089.44
2022-10-08T03:25:14.193Z,101090.38
2022-10-08T03:27:40.529Z,101089.44
2022-10-08T03:30:07.025Z,101095.31
2022-10-08T03:32:33.374Z,101098.28
2022-10-08T03:34:59.684Z,101088.81
2022-10-08T03:37:26.040Z,101093.06
2022-10-08T03:39:52.354Z,101089.44
2022-10-08T03:42:18.688Z,101089.44
2022-10-08T03:44:45.026Z,101082.22
2022-10-08T03:47:11.328Z,101089.34
2022-10-08T03:49:37.649Z,101082.13
2022-10-08T03:52:03.971Z,101084.25
2022-10-08T03:54:30.268Z,101082.13
2022-10-08T03:56:56.584Z,101076.50
2022-10-08T03:59:22.901Z,101070.00
2022-10-08T04:01:49.266Z,101075.78
2022-10-08T04:04:15.676Z,101072.44
2022-10-08T04:06:41.986Z,101082.47
2022-10-08T04:09:09.201Z,101072.44
2022-10-08T04:11:35.519Z,101071.75
2022-10-08T04:14:01.826Z,101079.47
2022-10-08T04:16:28.151Z,101070.19
2022-10-08T04:18:54.474Z,101081.72
2022-10-08T04:21:20.787Z,101078.00
2022-10-08T04:23:47.105Z,101066.47
2022-10-08T04:26:13.643Z,101081.53
2022-10-08T04:28:40.445Z,101084.44
2022-10-08T04:31:07.738Z,101088.03
2022-10-08T04:33:34.347Z,101082.28
2022-10-08T04:36:00.703Z,101084.59
2022-10-08T04:38:27.206Z,101086.84
2022-10-08T04:41:12.661Z,101070.28
2022-10-08T04:43:39.123Z,101074.00
2022-10-08T04:46:05.892Z,101076.88
2022-10-08T04:48:32.250Z,101081.31
2022-10-08T04:50:58.999Z,101079.66
2022-10-08T04:53:28.077Z,101079.66
2022-10-08T04:55:54.448Z,101068.13
2022-10-08T04:58:20.934Z,101075.41
2022-10-08T05:00:47.287Z,101080.41
2022-10-08T05:03:13.633Z,101079.66
2022-10-08T05:05:43.330Z,101085.44
2022-10-08T05:08:09.735Z,101088.22
2022-10-08T05:10:36.103Z,101089.53
2022-10-08T05:13:02.422Z,101085.25
2022-10-08T05:15:28.743Z,101085.25
2022-10-08T05:17:55.067Z,101088.97
2022-10-08T05:20:21.430Z,101082.47
2022-10-08T05:22:48.112Z,101089.06
2022-10-08T05:25:14.600Z,101086.94
2022-10-08T05:27:40.914Z,101078.34
2022-10-08T05:30:07.551Z,101094.19
2022-10-08T05:32:33.878Z,101090.66
2022-10-08T05:35:00.223Z,101089.81
2022-10-08T05:37:26.693Z,101097.06
2022-10-08T05:39:53.030Z,101086.94
2022-10-08T05:42:19.346Z,101085.44
2022-10-08T05:44:45.710Z,101086.94
2022-10-08T05:47:12.041Z,101092.03
2022-10-08T05:49:38.383Z,101079.03
2022-10-08T05:52:04.710Z,101091.28
2022-10-08T05:54:31.082Z,101090.88
2022-10-08T05:56:57.390Z,101100.69
2022-10-08T05:59:23.934Z,101099.41
2022-10-08T06:01:50.276Z,101099.56
2022-10-08T06:04:18.267Z,101102.13
2022-10-08T06:06:44.734Z,101096.56
2022-10-08T06:09:12.310Z,101101.28
2022-10-08T06:11:38.665Z,101098.00
2022-10-08T06:14:06.159Z,101097.91
2022-10-08T06:16:32.578Z,101102.31
2022-10-08T06:18:59.948Z,101101.06
2022-10-08T06:21:26.599Z,101105.28
2022-10-08T06:23:56.652Z,101109.44
2022-10-08T06:26:23.335Z,101110.19
2022-10-08T06:28:49.742Z,101113.16
2022-10-08T06:31:16.318Z,101116.88
2022-10-08T06:33:42.690Z,101112.50
2022-10-08T06:36:18.605Z,101120.97
2022-10-08T06:38:54.613Z,101119.50
2022-10-08T06:41:20.966Z,101123.97
2022-10-08T06:43:47.359Z,101122.09
2022-10-08T06:46:13.795Z,101113.56
2022-10-08T06:48:40.175Z,101113.56
2022-10-08T06:51:07.348Z,101115.03
2022-10-08T06:53:33.895Z,101119.41
2022-10-08T06:56:00.819Z,101119.13
2022-10-08T06:58:27.141Z,101112.81
2022-10-08T07:01:02.453Z,101119.31
2022-10-08T07:03:28.845Z,101128.16
2022-10-08T07:05:55.198Z,101130.94
2022-10-08T07:08:21.539Z,101136.03
2022-10-08T07:10:49.880Z,101136.78
2022-10-08T07:13:16.218Z,101141.88
2022-10-08T07:15:42.521Z,101134.00
2022-10-08T07:18:11.713Z,101141.25
2022-10-08T07:20:38.534Z,101151.31
2022-10-08T07:23:05.095Z,101155.56
2022-10-08T07:25:31.409Z,101141.25
2022-10-08T07:27:57.730Z,101148.50
2022-10-08T07:30:24.087Z,101157.41
2022-10-08T07:32:52.447Z,101149.50
2022-10-08T07:35:18.780Z,101151.66
2022-10-08T07:37:58.957Z,101147.97
2022-10-08T07:40:37.731Z,101159.66
2022-10-08T07:43:04.973Z,101149.63
2022-10-08T07:45:31.443Z,101157.81
2022-10-08T07:47:57.836Z,101158.00
2022-10-08T07:50:24.193Z,101156.69
2022-10-08T07:52:50.507Z,101161.03
2022-10-08T07:55:16.809Z,101158.94
2022-10-08T07:57:43.167Z,101169.88
2022-10-08T08:00:09.657Z,101161.13
2022-10-08T08:02:38.750Z,101171.19
2022-10-08T08:05:05.174Z,101174.19
2022-10-08T08:07:31.526Z,101174.91
2022-10-08T08:09:57.870Z,101179.19
2022-10-08T08:12:24.238Z,101175.66
2022-10-08T08:14:50.549Z,101174.91
2022-10-08T08:17:16.861Z,101177.06
2022-10-08T08:19:43.190Z,101173.44
2022-10-08T08:22:09.523Z,101168.31
2022-10-08T08:24:35.860Z,101174.06
2022-10-08T08:27:02.276Z,101186.44
2022-10-08T08:29:28.632Z,101178.44
2022-10-08T08:31:55.057Z,101177.16
2022-10-08T08:34:21.769Z,101171.28
2022-10-08T08:36:49.161Z,101172.66
2022-10-08T08:39:17.306Z,101168.41
2022-10-08T08:42:00.280Z,101178.53
2022-10-08T08:44:29.651Z,101174.28
2022-10-08T08:47:04.268Z,101190.78
2022-10-08T08:49:33.313Z,101180.69
2022-10-08T08:52:01.334Z,101191.47
2022-10-08T08:54:27.746Z,101192.19
2022-10-08T08:56:54.087Z,101195.81
2022-10-08T08:59:31.445Z,101190.91
2022-10-08T09:02:01.389Z,101193.78
2022-10-08T09:04:31.230Z,101188.69
2022-10-08T09:06:57.547Z,101203.19
2022-10-08T09:09:43.501Z,101204.66
2022-10-08T09:12:14.246Z,101209.78
2022-10-08T09:14:42.478Z,101215.47
2022-10-08T09:17:18.967Z,101211.94
2022-10-08T09:19:45.475Z,101211.25
2022-10-08T09:22:18.054Z,101204.75
2022-10-08T09:24:44.361Z,101209.13
2022-10-08T09:27:13.450Z,101202.63
2022-10-08T09:29:39.777Z,101208.38
2022-10-08T09:32:07.342Z,101212.00
2022-10-08T09:34:33.660Z,101212.00
2022-10-08T09:37:03.994Z,101216.38
2022-10-08T09:39:34.200Z,101221.41
2022-10-08T09:42:03.444Z,101220.66
2022-10-08T09:44:38.443Z,101227.91
2022-10-08T09:47:05.119Z,101222.16
2022-10-08T09:49:32.330Z,101225.78
2022-10-08T09:52:02.315Z,101237.31
2022-10-08T09:54:29.710Z,101236.66
2022-10-08T09:56:57.058Z,101233.03
2022-10-08T09:59:24.039Z,101233.69
2022-10-08T10:01:50.731Z,101239.44
2022-10-08T10:04:18.770Z,101238.72
2022-10-08T10:06:46.082Z,101240.19
2022-10-08T10:09:24.288Z,101245.22
2022-10-08T10:11:51.150Z,101240.84
2022-10-08T10:14:21.749Z,101247.38
2022-10-08T10:16:48.714Z,101248.09
2022-10-08T10:19:16.205Z,101249.47
2022-10-08T10:21:45.422Z,101243.72
2022-10-08T10:24:21.766Z,101258.22
2022-10-08T10:26:48.114Z,101246.59
2022-10-08T10:29:16.427Z,101245.13
2022-10-08T10:31:47.156Z,101240.09
2022-10-08T10:34:14.499Z,101245.03
2022-10-08T10:36:45.786Z,101246.44
2022-10-08T10:39:30.605Z,101256.56
2022-10-08T10:42:03.298Z,101255.06
2022-10-08T10:44:48.493Z,101249.13
2022-10-08T10:47:14.814Z,101257.97
2022-10-08T10:49:41.610Z,101250.69
2022-10-08T10:52:16.537Z,101262.13
2022-10-08T10:54:53.262Z,101255.72
2022-10-08T10:57:38.350Z,101252.75
2022-10-08T11:00:05.857Z,101249.13
2022-10-08T11:02:41.052Z,101259.34
2022-10-08T11:05:13.482Z,101247.91
2022-10-08T11:07:58.622Z,101258.59
2022-10-08T11:10:29.830Z,101263.06
2022-10-08T11:12:58.315Z,101259.34
2022-10-08T11:15:24.596Z,101273.75
2022-10-08T11:17:55.189Z,101267.34
2022-10-08T11:20:44.866Z,101268.63
2022-10-08T11:23:21.707Z,101277.22
2022-10-08T11:26:23.145Z,101276.63
2022-10-08T11:29:01.146Z,101267.34
2022-10-08T11:31:35.669Z,101272.38
2022-10-08T11:34:03.567Z,101276.63
2022-10-08T11:36:37.805Z,101272.38
2022-10-08T11:39:19.356Z,101279.63
2022-10-08T11:41:55.079Z,101278.88
2022-10-08T11:44:21.624Z,101269.50
2022-10-08T11:46:47.986Z,101264.56
2022-10-08T11:49:14.265Z,101268.09
2022-10-08T11:51:40.547Z,101273.31
2022-10-08T11:54:12.496Z,101270.31
2022-10-08T11:56:39.905Z,101254.88
2022-10-08T11:59:07.488Z,101262.41
2022-10-08T12:01:33.840Z,101263.66
2022-10-08T12:04:05.044Z,101277.38
2022-10-08T12:06:33.454Z,101251.91
2022-10-08T12:09:02.543Z,101255.72
2022-10-08T12:11:31.891Z,101258.03
2022-10-08T12:14:10.461Z,101262.34
2022-10-08T12:16:49.225Z,101255.81
2022-10-08T12:19:33.990Z,101267.38
2022-10-08T12:22:01.578Z,101263.06
2022-10-08T12:24:36.650Z,101262.34
2022-10-08T12:27:18.230Z,101265.22
2022-10-08T12:30:00.739Z,101266.13
2022-10-08T12:32:27.722Z,101268.66
2022-10-08T12:34:54.072Z,101266.63
2022-10-08T12:37:36.219Z,101277.22
2022-10-08T12:40:03.521Z,101273.81
2022-10-08T12:42:32.892Z,101276.03
2022-10-08T12:45:14.372Z,101279.06
2022-10-08T12:47:48.164Z,101275.91
2022-10-08T12:50:20.748Z,101277.47
2022-10-08T12:52:47.065Z,101265.41
2022-10-08T12:55:15.346Z,101269.03
2022-10-08T12:57:41.660Z,101268.47
2022-10-08T13:00:19.250Z,101274.41
2022-10-08T13:02:57.075Z,101273.13
2022-10-08T13:05:24.394Z,101273.13
2022-10-08T13:07:50.942Z,101274.59
2022-10-08T13:10:21.178Z,101279.63
2022-10-08T13:12:59.955Z,101283.34
2022-10-08T13:15:26.503Z,101283.34
2022-10-08T13:17:53.759Z,101264.56
2022-10-08T13:20:21.257Z,101283.25
2022-10-08T13:22:47.579Z,101277.50
2022-10-08T13:25:33.442Z,101276.84
2022-10-08T13:28:09.571Z,101283.44
2022-10-08T13:30:35.909Z,101284.94
2022-10-08T13:33:06.153Z,101286.34
2022-10-08T13:35:33.383Z,101289.31
2022-10-08T13:37:59.711Z,101286.34
2022-10-08T13:40:26.024Z,101292.00
2022-10-08T13:42:52.997Z,101289.31
2022-10-08T13:45:19.223Z,101286.44
2022-10-08T13:47:45.886Z,101279.25
2022-10-08T13:50:12.506Z,101286.53
2022-10-08T13:52:41.271Z,101280.75
2022-10-08T13:55:08.708Z,101282.25
2022-10-08T13:57:35.037Z,101284.47
2022-10-08T14:00:01.358Z,101267.81
2022-10-08T14:02:27.728Z,101273.59
2022-10-08T14:04:54.045Z,101275.00
2022-10-08T14:07:21.379Z,101279.25
2022-10-08T14:09:47.849Z,101283.75
2022-10-08T14:12:14.264Z,101285.78
2022-10-08T14:14:40.604Z,101299.44
2022-10-08T14:17:06.946Z,101292.28
2022-10-08T14:19:33.263Z,101302.31
2022-10-08T14:21:59.591Z,101302.31
2022-10-08T14:24:25.929Z,101320.94
2022-10-08T14:26:52.639Z,101333.88
2022-10-08T14:29:19.063Z,101328.19
2022-10-08T14:31:45.471Z,101325.97
2022-10-08T14:34:11.916Z,101312.19
2022-10-08T14:36:39.489Z,101306.41
2022-10-08T14:39:05.812Z,101306.41
2022-10-08T14:41:32.310Z,101310.72
2022-10-08T14:43:58.614Z,101317.22
2022-10-08T14:46:25.340Z,101323.72
2022-10-08T14:48:51.664Z,101322.25
2022-10-08T14:51:17.990Z,101314.34
2022-10-08T14:53:44.310Z,101317.22
2022-10-08T14:56:12.939Z,101323.00
2022-10-08T14:58:39.524Z,101322.41
2022-10-08T15:01:06.089Z,101325.22
2022-10-08T15:03:32.483Z,101326.69
2022-10-08T15:05:59.013Z,101323.72
2022-10-08T15:08:25.415Z,101349.78
2022-10-08T15:10:51.748Z,101339.66
2022-10-08T15:13:18.062Z,101369.97
2022-10-08T15:15:44.426Z,101365.59
2022-10-08T15:18:11.384Z,101382.91
2022-10-08T15:20:38.077Z,101382.91
2022-10-08T15:23:04.458Z,101390.16
2022-10-08T15:25:30.831Z,101394.44
2022-10-08T15:27:57.223Z,101385.78
2022-10-08T15:30:23.533Z,101385.78
2022-10-08T15:32:50.049Z,101396.44
2022-10-08T15:35:18.566Z,101398.69
2022-10-08T15:37:45.019Z,101407.25
2022-10-08T15:40:11.354Z,101400.09
2022-10-08T15:42:37.711Z,101395.72
2022-10-08T15:45:04.106Z,101386.44
2022-10-08T15:47:30.419Z,101390.16
2022-10-08T15:49:56.792Z,101390.16
2022-10-08T15:52:23.124Z,101401.69
2022-10-08T15:54:49.431Z,101401.69
2022-10-08T15:57:16.438Z,101416.41
2022-10-08T15:59:51.957Z,101421.06
2022-10-08T16:02:18.737Z,101420.97
2022-10-08T16:04:45.669Z,101420.97
2022-10-08T16:07:12.077Z,101429.16
2022-10-08T16:09:38.395Z,101424.69
2022-10-08T16:12:04.736Z,101427.66
2022-10-08T16:14:31.069Z,101429.88
2022-10-08T16:16:57.461Z,101428.59
2022-10-08T16:19:24.573Z,101437.44
2022-10-08T16:21:51.225Z,101436.78
2022-10-08T16:24:17.539Z,101444.69
2022-10-08T16:26:43.933Z,101457.19
2022-10-08T16:29:11.107Z,101454.38
2022-10-08T16:31:37.578Z,101456.56
2022-10-08T16:34:05.205Z,101450.19
2022-10-08T16:36:32.994Z,101456.69
2022-10-08T16:38:59.336Z,101466.69
2022-10-08T16:41:34.785Z,101467.34
2022-10-08T16:44:11.164Z,101473.88
2022-10-08T16:46:38.944Z,101471.91
2022-10-08T16:49:05.421Z,101476.91
2022-10-08T16:51:32.534Z,101477.81
2022-10-08T16:53:59.243Z,101499.63
2022-10-08T16:56:29.068Z,101497.09
2022-10-08T16:58:56.481Z,101504.91
2022-10-08T17:01:22.851Z,101505.63
2022-10-08T17:03:49.213Z,101527.97
2022-10-08T17:06:15.893Z,101521.44
2022-10-08T17:08:42.206Z,101532.91
2022-10-08T17:11:08.997Z,101537.06
2022-10-08T17:13:35.420Z,101544.13
2022-10-08T17:16:02.393Z,101543.16
2022-10-08T17:18:28.715Z,101544.53
2022-10-08T17:20:55.852Z,101549.56
2022-10-08T17:23:22.623Z,101555.22
2022-10-08T17:25:53.458Z,101558.78
2022-10-08T17:28:19.829Z,101564.56
2022-10-08T17:30:46.317Z,101575.31
2022-10-08T17:33:12.645Z,101573.63
2022-10-08T17:35:38.966Z,101576.63
2022-10-08T17:38:05.283Z,101570.13
2022-10-08T17:40:31.713Z,101570.84
2022-10-08T17:42:58.036Z,101581.75
2022-10-08T17:45:24.421Z,101580.34
2022-10-08T17:47:51.018Z,101589.75
2022-10-08T17:50:17.350Z,101589.09
2022-10-08T17:52:43.665Z,101594.88
2022-10-08T17:55:10.305Z,101602.13
2022-10-08T17:57:36.710Z,101607.16
2022-10-08T18:00:03.228Z,101602.91
2022-10-08T18:02:35.320Z,101607.91
2022-10-08T18:05:01.662Z,101615.81
2022-10-08T18:07:27.969Z,101625.66
2022-10-08T18:09:54.296Z,101625.66
2022-10-08T18:12:20.626Z,101624.25
2022-10-08T18:14:47.465Z,101634.31
2022-10-08T18:17:13.790Z,101637.09
2022-10-08T18:19:40.142Z,101655.13
2022-10-08T18:22:06.472Z,101650.97
2022-10-08T18:24:34.710Z,101647.94
2022-10-08T18:27:01.056Z,101652.03
2022-10-08T18:29:27.407Z,101644.44
2022-10-08T18:31:54.075Z,101659.53
2022-10-08T18:34:20.396Z,101660.28
2022-10-08T18:36:46.761Z,101660.50
2022-10-08T18:39:14.069Z,101653.97
2022-10-08T18:41:41.413Z,101662.72
2022-10-08T18:44:08.143Z,101669.88
2022-10-08T18:46:34.926Z,101667.00
2022-10-08T18:49:01.406Z,101669.16
2022-10-08T18:51:28.111Z,101677.06
2022-10-08T18:53:55.096Z,101676.28
2022-10-08T18:56:22.242Z,101681.31
2022-10-08T18:58:50.559Z,101694.25
2022-10-08T19:01:20.999Z,101689.84
2022-10-08T19:03:47.681Z,101701.38
2022-10-08T19:06:14.011Z,101694.13
2022-10-08T19:08:40.342Z,101698.41
2022-10-08T19:11:13.659Z,101701.28
2022-10-08T19:13:39.993Z,101701.94
2022-10-08T19:16:06.506Z,101708.44
2022-10-08T19:18:32.923Z,101712.69
2022-10-08T19:21:05.910Z,101704.72
2022-10-08T19:23:32.233Z,101719.13
2022-10-08T19:25:58.542Z,101722.63
2022-10-08T19:28:24.924Z,101724.78
2022-10-08T19:30:51.308Z,101721.16
2022-10-08T19:33:17.640Z,101728.28
2022-10-08T19:35:43.976Z,101727.56
2022-10-08T19:38:10.283Z,101739.09
2022-10-08T19:40:36.599Z,101732.47
2022-10-08T19:43:04.147Z,101734.59
2022-10-08T19:45:30.534Z,101732.34
2022-10-08T19:47:56.842Z,101738.13
2022-10-08T19:50:23.159Z,101737.38
2022-10-08T19:52:51.851Z,101743.25
2022-10-08T19:55:18.391Z,101744.00
2022-10-08T19:57:44.779Z,101748.38
2022-10-08T20:00:11.549Z,101749.88
2022-10-08T20:02:37.910Z,101744.84
2022-10-08T20:05:04.668Z,101752.88
2022-10-08T20:07:31.246Z,101754.34
2022-10-08T20:09:58.234Z,101763.13
2022-10-08T20:12:24.562Z,101773.16
2022-10-08T20:14:50.874Z,101767.28
2022-10-08T20:17:17.178Z,101770.19
2022-10-08T20:19:43.489Z,101777.44
2022-10-08T20:22:11.950Z,101781.72
2022-10-08T20:24:38.489Z,101788.22
2022-10-08T20:27:04.817Z,101780.19
2022-10-08T20:29:31.390Z,101771.44
2022-10-08T20:31:58.009Z,101796.00
2022-10-08T20:34:26.884Z,101793.00
2022-10-08T20:36:53.299Z,101794.50
2022-10-08T20:39:19.974Z,101799.53
2022-10-08T20:41:46.309Z,101798.78
2022-10-08T20:44:12.644Z,101805.91
2022-10-08T20:46:39.009Z,101810.19
2022-10-08T20:49:05.842Z,101800.81
2022-10-08T20:51:32.264Z,101810.81
2022-10-08T20:53:59.385Z,101818.72
2022-10-08T20:56:25.733Z,101821.63
2022-10-08T20:58:52.341Z,101820.25
2022-10-08T21:01:28.677Z,101819.34
2022-10-08T21:03:54.999Z,101828.78
2022-10-08T21:06:21.989Z,101828.78
2022-10-08T21:08:48.657Z,101833.03
2022-10-08T21:11:15.882Z,101837.31
2022-10-08T21:13:42.223Z,101840.19
2022-10-08T21:16:09.410Z,101840.19
2022-10-08T21:18:35.750Z,101850.22
2022-10-08T21:21:02.977Z,101855.97
2022-10-08T21:23:29.357Z,101842.22
2022-10-08T21:26:04.835Z,101851.50
2022-10-08T21:28:31.245Z,101848.63
2022-10-08T21:31:01.832Z,101849.97
2022-10-08T21:33:30.447Z,101860.75
2022-10-08T21:35:57.174Z,101860.75
2022-10-08T21:38:23.803Z,101860.03
2022-10-08T21:40:56.506Z,101862.16
2022-10-08T21:43:22.862Z,101863.53
2022-10-08T21:45:53.143Z,101859.91
2022-10-08T21:48:19.502Z,101864.19
2022-10-08T21:50:54.163Z,101877.81
2022-10-08T21:53:20.508Z,101868.44
2022-10-08T21:55:53.387Z,101871.31
2022-10-08T21:58:19.697Z,101877.09
2022-10-08T22:00:46.325Z,101879.97
2022-10-08T22:03:12.654Z,101870.56
2022-10-08T22:05:38.969Z,101875.59
2022-10-08T22:08:05.298Z,101882.72
2022-10-08T22:10:31.736Z,101884.13
2022-10-08T22:12:58.122Z,101887.75
2022-10-08T22:15:24.505Z,101884.13
2022-10-08T22:17:50.818Z,101889.88
2022-10-08T22:20:17.123Z,101881.13
2022-10-08T22:22:43.426Z,101897.03
2022-10-08T22:25:09.755Z,101892.16
2022-10-08T22:27:36.078Z,101892.91
2022-10-08T22:30:02.391Z,101891.25
2022-10-08T22:32:28.718Z,101891.91
2022-10-08T22:34:55.037Z,101900.56
2022-10-08T22:37:21.372Z,101898.31
2022-10-08T22:39:47.693Z,101904.69
2022-10-08T22:42:14.007Z,101903.94
2022-10-08T22:44:40.326Z,101902.47
2022-10-08T22:47:06.639Z,101900.19
2022-10-08T22:49:32.966Z,101910.97
2022-10-08T22:51:59.278Z,101905.22
2022-10-08T22:54:25.801Z,101906.59
2022-10-08T22:56:52.111Z,101905.84
2022-10-08T22:59:18.423Z,101900.81
2022-10-08T23:01:44.771Z,101896.44
2022-10-08T23:04:11.141Z,101906.50
2022-10-08T23:06:37.458Z,101906.50
2022-10-08T23:09:04.845Z,101904.22
2022-10-08T23:11:31.731Z,101898.47
2022-10-08T23:13:58.479Z,101909.25
2022-10-08T23:16:25.233Z,101903.50
2022-10-08T23:18:52.571Z,101912.75
2022-10-08T23:21:18.886Z,101918.50
2022-10-08T23:23:45.544Z,101912.00
2022-10-08T23:26:11.925Z,101916.25
2022-10-08T23:28:38.432Z,101914.78
2022-10-08T23:31:11.825Z,101920.53
2022-10-08T23:33:38.479Z,101916.13
2022-10-08T23:36:08.254Z,101921.91
2022-10-08T23:38:34.735Z,101920.41
2022-10-08T23:41:01.294Z,101921.91
2022-10-08T23:43:28.399Z,101926.19
2022-10-08T23:45:55.282Z,101921.81
2022-10-08T23:48:21.684Z,101924.69
2022-10-08T23:50:51.472Z,101920.28
2022-10-08T23:53:18.270Z,101927.41
2022-10-08T23:55:44.574Z,101924.53
2022-10-08T23:58:10.957Z,101926.66
